sensor_id;sensor_type;location;lat;lon;timestamp;temperature;humidity
21244;DHT22;10780;50.942;4.028;2023-07-22T00:01:23;17.60;99.90
21244;DHT22;10780;50.942;4.028;2023-07-22T00:03:49;17.70;99.90
21244;DHT22;10780;50.942;4.028;2023-07-22T00:06:14;17.60;99.90
21244;DHT22;10780;50.942;4.028;2023-07-22T00:08:40;17.60;99.90
21244;DHT22;10780;50.942;4.028;2023-07-22T00:11:06;17.50;99.90
21244;DHT22;10780;50.942;4.028;2023-07-22T00:13:32;17.40;99.90
21244;DHT22;10780;50.942;4.028;2023-07-22T00:15:59;17.40;99.90
21244;DHT22;10780;50.942;4.028;2023-07-22T00:18:25;17.50;99.90
21244;DHT22;10780;50.942;4.028;2023-07-22T00:20:53;17.50;99.90
21244;DHT22;10780;50.942;4.028;2023-07-22T00:23:19;17.60;99.90
21244;DHT22;10780;50.942;4.028;2023-07-22T00:25:45;17.70;99.90
21244;DHT22;10780;50.942;4.028;2023-07-22T00:28:11;17.60;99.90
21244;DHT22;10780;50.942;4.028;2023-07-22T00:30:37;17.60;99.90
21244;DHT22;10780;50.942;4.028;2023-07-22T00:33:02;17.60;99.90
21244;DHT22;10780;50.942;4.028;2023-07-22T00:35:28;17.50;99.90
21244;DHT22;10780;50.942;4.028;2023-07-22T00:37:54;17.60;99.90
21244;DHT22;10780;50.942;4.028;2023-07-22T00:40:19;17.60;99.90
21244;DHT22;10780;50.942;4.028;2023-07-22T00:42:45;17.60;99.90
21244;DHT22;10780;50.942;4.028;2023-07-22T00:45:11;17.70;99.90
21244;DHT22;10780;50.942;4.028;2023-07-22T00:47:39;17.80;99.90
21244;DHT22;10780;50.942;4.028;2023-07-22T00:50:06;17.80;99.90
21244;DHT22;10780;50.942;4.028;2023-07-22T00:52:33;17.90;99.90
21244;DHT22;10780;50.942;4.028;2023-07-22T00:54:59;17.90;99.90
21244;DHT22;10780;50.942;4.028;2023-07-22T00:57:25;17.80;99.90
21244;DHT22;10780;50.942;4.028;2023-07-22T00:59:51;17.80;99.90
21244;DHT22;10780;50.942;4.028;2023-07-22T01:02:18;17.90;99.90
21244;DHT22;10780;50.942;4.028;2023-07-22T01:04:44;17.90;99.90
21244;DHT22;10780;50.942;4.028;2023-07-22T01:07:11;17.80;99.90
21244;DHT22;10780;50.942;4.028;2023-07-22T01:09:37;17.80;99.90
21244;DHT22;10780;50.942;4.028;2023-07-22T01:12:03;17.90;99.90
21244;DHT22;10780;50.942;4.028;2023-07-22T01:14:32;17.90;99.90
21244;DHT22;10780;50.942;4.028;2023-07-22T01:17:00;17.90;99.90
21244;DHT22;10780;50.942;4.028;2023-07-22T01:19:27;17.90;99.90
21244;DHT22;10780;50.942;4.028;2023-07-22T01:21:53;17.90;99.90
21244;DHT22;10780;50.942;4.028;2023-07-22T01:24:20;17.80;99.90
21244;DHT22;10780;50.942;4.028;2023-07-22T01:26:46;17.70;99.90
21244;DHT22;10780;50.942;4.028;2023-07-22T01:29:13;17.80;99.90
21244;DHT22;10780;50.942;4.028;2023-07-22T01:31:39;17.70;99.90
21244;DHT22;10780;50.942;4.028;2023-07-22T01:34:05;17.70;99.90
21244;DHT22;10780;50.942;4.028;2023-07-22T01:36:31;17.70;99.90
21244;DHT22;10780;50.942;4.028;2023-07-22T01:38:56;17.60;99.90
21244;DHT22;10780;50.942;4.028;2023-07-22T01:41:22;17.60;99.90
21244;DHT22;10780;50.942;4.028;2023-07-22T01:43:48;17.60;99.90
21244;DHT22;10780;50.942;4.028;2023-07-22T01:46:14;17.50;99.90
21244;DHT22;10780;50.942;4.028;2023-07-22T01:48:40;17.50;99.90
21244;DHT22;10780;50.942;4.028;2023-07-22T01:51:05;17.50;99.90
21244;DHT22;10780;50.942;4.028;2023-07-22T01:53:31;17.50;99.90
21244;DHT22;10780;50.942;4.028;2023-07-22T01:55:57;17.50;99.90
21244;DHT22;10780;50.942;4.028;2023-07-22T01:58:23;17.40;99.90
21244;DHT22;10780;50.942;4.028;2023-07-22T02:00:51;17.40;99.90
21244;DHT22;10780;50.942;4.028;2023-07-22T02:03:17;17.50;99.90
21244;DHT22;10780;50.942;4.028;2023-07-22T02:05:42;17.40;99.90
21244;DHT22;10780;50.942;4.028;2023-07-22T02:08:08;17.30;99.90
21244;DHT22;10780;50.942;4.028;2023-07-22T02:10:34;17.40;99.90
21244;DHT22;10780;50.942;4.028;2023-07-22T02:13:00;17.30;99.90
21244;DHT22;10780;50.942;4.028;2023-07-22T02:15:26;17.30;99.90
21244;DHT22;10780;50.942;4.028;2023-07-22T02:17:51;17.40;99.90
21244;DHT22;10780;50.942;4.028;2023-07-22T02:20:17;17.40;99.90
21244;DHT22;10780;50.942;4.028;2023-07-22T02:22:43;17.40;99.90
21244;DHT22;10780;50.942;4.028;2023-07-22T02:25:09;17.40;99.90
21244;DHT22;10780;50.942;4.028;2023-07-22T02:27:36;17.50;99.90
21244;DHT22;10780;50.942;4.028;2023-07-22T02:30:02;17.50;99.90
21244;DHT22;10780;50.942;4.028;2023-07-22T02:32:29;17.50;99.90
21244;DHT22;10780;50.942;4.028;2023-07-22T02:34:55;17.40;99.90
21244;DHT22;10780;50.942;4.028;2023-07-22T02:37:21;17.30;99.90
21244;DHT22;10780;50.942;4.028;2023-07-22T02:39:46;17.30;99.90
21244;DHT22;10780;50.942;4.028;2023-07-22T02:42:12;17.30;99.90
21244;DHT22;10780;50.942;4.028;2023-07-22T02:44:37;17.20;99.90
21244;DHT22;10780;50.942;4.028;2023-07-22T02:47:03;17.20;99.90
21244;DHT22;10780;50.942;4.028;2023-07-22T02:49:29;17.10;99.90
21244;DHT22;10780;50.942;4.028;2023-07-22T02:51:54;17.00;99.90
21244;DHT22;10780;50.942;4.028;2023-07-22T02:54:20;16.90;99.90
21244;DHT22;10780;50.942;4.028;2023-07-22T02:56:45;16.90;99.90
21244;DHT22;10780;50.942;4.028;2023-07-22T02:59:11;16.80;99.90
21244;DHT22;10780;50.942;4.028;2023-07-22T03:01:37;16.70;99.90
21244;DHT22;10780;50.942;4.028;2023-07-22T03:04:02;16.70;99.90
21244;DHT22;10780;50.942;4.028;2023-07-22T03:06:29;16.70;99.90
21244;DHT22;10780;50.942;4.028;2023-07-22T03:08:56;16.60;99.90
21244;DHT22;10780;50.942;4.028;2023-07-22T03:11:23;16.60;99.90
21244;DHT22;10780;50.942;4.028;2023-07-22T03:13:50;16.60;99.90
21244;DHT22;10780;50.942;4.028;2023-07-22T03:16:16;16.50;99.90
21244;DHT22;10780;50.942;4.028;2023-07-22T03:18:42;16.60;99.90
21244;DHT22;10780;50.942;4.028;2023-07-22T03:21:08;16.70;99.90
21244;DHT22;10780;50.942;4.028;2023-07-22T03:23:34;16.70;99.90
21244;DHT22;10780;50.942;4.028;2023-07-22T03:26:00;16.70;99.90
21244;DHT22;10780;50.942;4.028;2023-07-22T03:28:26;16.60;99.90
21244;DHT22;10780;50.942;4.028;2023-07-22T03:30:51;16.60;99.90
21244;DHT22;10780;50.942;4.028;2023-07-22T03:33:18;16.50;99.90
21244;DHT22;10780;50.942;4.028;2023-07-22T03:35:44;16.50;99.90
21244;DHT22;10780;50.942;4.028;2023-07-22T03:38:09;16.40;99.90
21244;DHT22;10780;50.942;4.028;2023-07-22T03:40:35;16.30;99.90
21244;DHT22;10780;50.942;4.028;2023-07-22T03:43:01;16.30;99.90
21244;DHT22;10780;50.942;4.028;2023-07-22T03:45:26;16.40;99.90
21244;DHT22;10780;50.942;4.028;2023-07-22T03:48:00;16.40;99.90
21244;DHT22;10780;50.942;4.028;2023-07-22T03:50:26;16.40;99.90
21244;DHT22;10780;50.942;4.028;2023-07-22T03:52:52;16.40;99.90
21244;DHT22;10780;50.942;4.028;2023-07-22T03:55:18;16.30;99.90
21244;DHT22;10780;50.942;4.028;2023-07-22T03:57:47;16.40;99.90
21244;DHT22;10780;50.942;4.028;2023-07-22T04:00:12;16.40;99.90
21244;DHT22;10780;50.942;4.028;2023-07-22T04:02:38;16.30;99.90
21244;DHT22;10780;50.942;4.028;2023-07-22T04:05:04;16.30;99.90
21244;DHT22;10780;50.942;4.028;2023-07-22T04:07:30;16.30;99.90
21244;DHT22;10780;50.942;4.028;2023-07-22T04:09:56;16.20;99.90
21244;DHT22;10780;50.942;4.028;2023-07-22T04:12:21;16.20;99.90
21244;DHT22;10780;50.942;4.028;2023-07-22T04:14:47;16.10;99.90
21244;DHT22;10780;50.942;4.028;2023-07-22T04:17:13;16.20;99.90
21244;DHT22;10780;50.942;4.028;2023-07-22T04:19:41;16.20;99.90
21244;DHT22;10780;50.942;4.028;2023-07-22T04:22:07;16.20;99.90
21244;DHT22;10780;50.942;4.028;2023-07-22T04:24:33;16.30;99.90
21244;DHT22;10780;50.942;4.028;2023-07-22T04:26:59;16.30;99.90
21244;DHT22;10780;50.942;4.028;2023-07-22T04:29:24;16.30;99.90
21244;DHT22;10780;50.942;4.028;2023-07-22T04:31:50;16.40;99.90
21244;DHT22;10780;50.942;4.028;2023-07-22T04:34:15;16.30;99.90
21244;DHT22;10780;50.942;4.028;2023-07-22T04:36:41;16.30;99.90
21244;DHT22;10780;50.942;4.028;2023-07-22T04:39:07;16.30;99.90
21244;DHT22;10780;50.942;4.028;2023-07-22T04:41:35;16.30;99.90
21244;DHT22;10780;50.942;4.028;2023-07-22T04:44:01;16.30;99.90
21244;DHT22;10780;50.942;4.028;2023-07-22T04:46:26;16.20;99.90
21244;DHT22;10780;50.942;4.028;2023-07-22T04:48:55;16.30;99.90
21244;DHT22;10780;50.942;4.028;2023-07-22T04:51:22;16.30;99.90
21244;DHT22;10780;50.942;4.028;2023-07-22T04:53:47;16.30;99.90
21244;DHT22;10780;50.942;4.028;2023-07-22T04:56:13;16.20;99.90
21244;DHT22;10780;50.942;4.028;2023-07-22T04:58:39;16.20;99.90
21244;DHT22;10780;50.942;4.028;2023-07-22T05:01:04;16.20;99.90
21244;DHT22;10780;50.942;4.028;2023-07-22T05:03:30;16.10;99.90
21244;DHT22;10780;50.942;4.028;2023-07-22T05:05:56;16.00;99.90
21244;DHT22;10780;50.942;4.028;2023-07-22T05:08:23;16.00;99.90
21244;DHT22;10780;50.942;4.028;2023-07-22T05:10:49;16.00;99.90
21244;DHT22;10780;50.942;4.028;2023-07-22T05:13:14;16.10;99.90
21244;DHT22;10780;50.942;4.028;2023-07-22T05:15:40;16.10;99.90
21244;DHT22;10780;50.942;4.028;2023-07-22T05:18:05;16.30;99.90
21244;DHT22;10780;50.942;4.028;2023-07-22T05:20:31;16.30;99.90
21244;DHT22;10780;50.942;4.028;2023-07-22T05:22:57;16.30;99.90
21244;DHT22;10780;50.942;4.028;2023-07-22T05:25:23;16.30;99.90
21244;DHT22;10780;50.942;4.028;2023-07-22T05:27:49;16.40;99.90
21244;DHT22;10780;50.942;4.028;2023-07-22T05:30:15;16.40;99.90
21244;DHT22;10780;50.942;4.028;2023-07-22T05:32:40;16.50;99.90
21244;DHT22;10780;50.942;4.028;2023-07-22T05:35:06;16.70;99.90
21244;DHT22;10780;50.942;4.028;2023-07-22T05:37:32;16.70;99.90
21244;DHT22;10780;50.942;4.028;2023-07-22T05:39:58;16.70;99.90
21244;DHT22;10780;50.942;4.028;2023-07-22T05:42:24;16.70;99.90
21244;DHT22;10780;50.942;4.028;2023-07-22T05:44:49;17.00;99.90
21244;DHT22;10780;50.942;4.028;2023-07-22T05:47:15;17.20;99.90
21244;DHT22;10780;50.942;4.028;2023-07-22T05:49:40;17.20;99.90
21244;DHT22;10780;50.942;4.028;2023-07-22T05:52:06;17.10;99.90
21244;DHT22;10780;50.942;4.028;2023-07-22T05:54:32;17.30;99.90
21244;DHT22;10780;50.942;4.028;2023-07-22T05:56:58;17.20;99.90
21244;DHT22;10780;50.942;4.028;2023-07-22T05:59:23;17.40;99.90
21244;DHT22;10780;50.942;4.028;2023-07-22T06:01:49;17.50;99.90
21244;DHT22;10780;50.942;4.028;2023-07-22T06:04:15;17.60;99.90
21244;DHT22;10780;50.942;4.028;2023-07-22T06:06:40;17.50;99.90
21244;DHT22;10780;50.942;4.028;2023-07-22T06:09:06;17.70;99.90
21244;DHT22;10780;50.942;4.028;2023-07-22T06:11:31;17.90;99.90
21244;DHT22;10780;50.942;4.028;2023-07-22T06:13:57;18.10;99.90
21244;DHT22;10780;50.942;4.028;2023-07-22T06:16:23;18.30;99.90
21244;DHT22;10780;50.942;4.028;2023-07-22T06:18:48;18.20;99.90
21244;DHT22;10780;50.942;4.028;2023-07-22T06:21:14;18.30;99.90
21244;DHT22;10780;50.942;4.028;2023-07-22T06:23:40;18.30;99.90
21244;DHT22;10780;50.942;4.028;2023-07-22T06:26:06;18.10;99.90
21244;DHT22;10780;50.942;4.028;2023-07-22T06:28:32;18.10;99.90
21244;DHT22;10780;50.942;4.028;2023-07-22T06:30:57;18.20;99.90
21244;DHT22;10780;50.942;4.028;2023-07-22T06:33:23;18.30;99.90
21244;DHT22;10780;50.942;4.028;2023-07-22T06:35:48;18.40;99.90
21244;DHT22;10780;50.942;4.028;2023-07-22T06:38:14;18.60;99.90
21244;DHT22;10780;50.942;4.028;2023-07-22T06:40:40;18.70;99.90
21244;DHT22;10780;50.942;4.028;2023-07-22T06:43:06;18.50;99.90
21244;DHT22;10780;50.942;4.028;2023-07-22T06:45:32;18.60;99.90
21244;DHT22;10780;50.942;4.028;2023-07-22T06:47:58;18.60;99.90
21244;DHT22;10780;50.942;4.028;2023-07-22T06:50:24;18.50;99.90
21244;DHT22;10780;50.942;4.028;2023-07-22T06:52:49;18.80;99.90
21244;DHT22;10780;50.942;4.028;2023-07-22T06:55:15;18.80;99.90
21244;DHT22;10780;50.942;4.028;2023-07-22T06:57:41;18.90;99.90
21244;DHT22;10780;50.942;4.028;2023-07-22T07:00:07;19.00;99.90
21244;DHT22;10780;50.942;4.028;2023-07-22T07:02:35;19.10;99.90
21244;DHT22;10780;50.942;4.028;2023-07-22T07:05:01;19.00;99.90
21244;DHT22;10780;50.942;4.028;2023-07-22T07:07:27;18.70;99.90
21244;DHT22;10780;50.942;4.028;2023-07-22T07:09:53;19.00;99.90
21244;DHT22;10780;50.942;4.028;2023-07-22T07:12:18;19.20;99.90
21244;DHT22;10780;50.942;4.028;2023-07-22T07:14:44;19.30;99.90
21244;DHT22;10780;50.942;4.028;2023-07-22T07:17:09;19.00;99.90
21244;DHT22;10780;50.942;4.028;2023-07-22T07:19:35;18.50;99.90
21244;DHT22;10780;50.942;4.028;2023-07-22T07:22:01;18.40;99.90
21244;DHT22;10780;50.942;4.028;2023-07-22T07:24:26;18.50;99.90
21244;DHT22;10780;50.942;4.028;2023-07-22T07:26:52;18.60;99.90
21244;DHT22;10780;50.942;4.028;2023-07-22T07:29:18;18.80;99.90
21244;DHT22;10780;50.942;4.028;2023-07-22T07:31:44;18.60;99.90
21244;DHT22;10780;50.942;4.028;2023-07-22T07:34:09;18.40;99.90
21244;DHT22;10780;50.942;4.028;2023-07-22T07:36:35;18.60;99.90
21244;DHT22;10780;50.942;4.028;2023-07-22T07:39:01;18.90;99.90
21244;DHT22;10780;50.942;4.028;2023-07-22T07:41:27;19.10;99.90
21244;DHT22;10780;50.942;4.028;2023-07-22T07:43:53;19.50;99.90
21244;DHT22;10780;50.942;4.028;2023-07-22T07:46:27;20.00;99.90
21244;DHT22;10780;50.942;4.028;2023-07-22T07:48:58;20.40;99.90
21244;DHT22;10780;50.942;4.028;2023-07-22T07:51:29;20.70;99.90
21244;DHT22;10780;50.942;4.028;2023-07-22T07:53:56;20.50;99.90
21244;DHT22;10780;50.942;4.028;2023-07-22T07:56:22;20.50;99.90
21244;DHT22;10780;50.942;4.028;2023-07-22T07:58:50;20.40;99.90
21244;DHT22;10780;50.942;4.028;2023-07-22T08:01:16;20.50;99.90
21244;DHT22;10780;50.942;4.028;2023-07-22T08:03:43;20.90;99.90
21244;DHT22;10780;50.942;4.028;2023-07-22T08:06:09;21.00;99.90
21244;DHT22;10780;50.942;4.028;2023-07-22T08:08:35;20.90;99.90
21244;DHT22;10780;50.942;4.028;2023-07-22T08:11:13;21.00;99.90
21244;DHT22;10780;50.942;4.028;2023-07-22T08:13:39;21.20;99.90
21244;DHT22;10780;50.942;4.028;2023-07-22T08:16:07;21.10;99.90
21244;DHT22;10780;50.942;4.028;2023-07-22T08:18:34;20.60;99.90
21244;DHT22;10780;50.942;4.028;2023-07-22T08:21:01;20.40;99.90
21244;DHT22;10780;50.942;4.028;2023-07-22T08:23:28;20.50;99.90
21244;DHT22;10780;50.942;4.028;2023-07-22T08:25:53;20.20;99.90
21244;DHT22;10780;50.942;4.028;2023-07-22T08:28:19;20.20;99.90
21244;DHT22;10780;50.942;4.028;2023-07-22T08:30:45;20.20;99.90
21244;DHT22;10780;50.942;4.028;2023-07-22T08:33:11;20.10;99.90
21244;DHT22;10780;50.942;4.028;2023-07-22T08:35:38;20.30;99.90
21244;DHT22;10780;50.942;4.028;2023-07-22T08:38:04;20.00;99.90
21244;DHT22;10780;50.942;4.028;2023-07-22T08:40:37;19.80;99.90
21244;DHT22;10780;50.942;4.028;2023-07-22T08:43:04;20.00;99.90
21244;DHT22;10780;50.942;4.028;2023-07-22T08:45:32;20.10;99.90
21244;DHT22;10780;50.942;4.028;2023-07-22T08:48:10;20.30;99.90
21244;DHT22;10780;50.942;4.028;2023-07-22T08:50:46;20.20;99.90
21244;DHT22;10780;50.942;4.028;2023-07-22T08:53:13;20.00;99.90
21244;DHT22;10780;50.942;4.028;2023-07-22T08:55:40;19.80;99.90
21244;DHT22;10780;50.942;4.028;2023-07-22T08:58:08;19.80;99.90
21244;DHT22;10780;50.942;4.028;2023-07-22T09:00:35;19.90;99.90
21244;DHT22;10780;50.942;4.028;2023-07-22T09:03:01;20.00;99.90
21244;DHT22;10780;50.942;4.028;2023-07-22T09:05:28;20.20;99.90
21244;DHT22;10780;50.942;4.028;2023-07-22T09:07:55;20.40;99.90
21244;DHT22;10780;50.942;4.028;2023-07-22T09:10:22;20.50;99.90
21244;DHT22;10780;50.942;4.028;2023-07-22T09:12:51;20.50;99.90
21244;DHT22;10780;50.942;4.028;2023-07-22T09:15:17;20.80;99.90
21244;DHT22;10780;50.942;4.028;2023-07-22T09:17:44;20.90;99.90
21244;DHT22;10780;50.942;4.028;2023-07-22T09:20:12;21.00;99.90
21244;DHT22;10780;50.942;4.028;2023-07-22T09:22:46;21.20;99.90
21244;DHT22;10780;50.942;4.028;2023-07-22T09:25:16;21.40;99.90
21244;DHT22;10780;50.942;4.028;2023-07-22T09:27:43;21.40;99.90
21244;DHT22;10780;50.942;4.028;2023-07-22T09:30:36;21.60;99.90
21244;DHT22;10780;50.942;4.028;2023-07-22T09:33:05;21.20;99.90
21244;DHT22;10780;50.942;4.028;2023-07-22T09:38:07;21.40;99.90
21244;DHT22;10780;50.942;4.028;2023-07-22T09:40:33;21.30;99.90
21244;DHT22;10780;50.942;4.028;2023-07-22T09:43:01;21.40;99.90
21244;DHT22;10780;50.942;4.028;2023-07-22T09:45:31;21.50;99.90
21244;DHT22;10780;50.942;4.028;2023-07-22T09:47:58;21.40;99.90
21244;DHT22;10780;50.942;4.028;2023-07-22T09:50:25;21.40;99.90
21244;DHT22;10780;50.942;4.028;2023-07-22T09:52:53;22.00;99.90
21244;DHT22;10780;50.942;4.028;2023-07-22T09:55:29;22.20;99.90
21244;DHT22;10780;50.942;4.028;2023-07-22T09:58:04;22.20;99.90
21244;DHT22;10780;50.942;4.028;2023-07-22T10:00:36;22.10;99.90
21244;DHT22;10780;50.942;4.028;2023-07-22T10:03:04;22.20;99.90
21244;DHT22;10780;50.942;4.028;2023-07-22T10:05:37;22.40;99.90
21244;DHT22;10780;50.942;4.028;2023-07-22T10:08:05;22.40;99.90
21244;DHT22;10780;50.942;4.028;2023-07-22T10:10:33;22.50;99.90
21244;DHT22;10780;50.942;4.028;2023-07-22T10:12:59;22.60;99.90
21244;DHT22;10780;50.942;4.028;2023-07-22T10:15:28;22.90;99.90
21244;DHT22;10780;50.942;4.028;2023-07-22T10:17:55;23.10;99.90
21244;DHT22;10780;50.942;4.028;2023-07-22T10:20:21;23.40;99.90
21244;DHT22;10780;50.942;4.028;2023-07-22T10:22:48;23.60;99.90
21244;DHT22;10780;50.942;4.028;2023-07-22T10:25:17;23.90;99.90
21244;DHT22;10780;50.942;4.028;2023-07-22T10:27:44;23.70;99.90
21244;DHT22;10780;50.942;4.028;2023-07-22T10:30:11;22.80;99.90
21244;DHT22;10780;50.942;4.028;2023-07-22T10:32:39;22.70;99.90
21244;DHT22;10780;50.942;4.028;2023-07-22T10:35:17;22.70;99.90
21244;DHT22;10780;50.942;4.028;2023-07-22T10:37:46;22.50;99.90
21244;DHT22;10780;50.942;4.028;2023-07-22T10:40:17;22.60;99.90
21244;DHT22;10780;50.942;4.028;2023-07-22T10:42:58;22.60;99.90
21244;DHT22;10780;50.942;4.028;2023-07-22T10:45:25;22.70;99.90
21244;DHT22;10780;50.942;4.028;2023-07-22T10:48:12;22.90;99.90
21244;DHT22;10780;50.942;4.028;2023-07-22T10:50:48;23.30;99.90
21244;DHT22;10780;50.942;4.028;2023-07-22T10:53:28;23.60;99.90
21244;DHT22;10780;50.942;4.028;2023-07-22T11:09:41;24.30;99.90
21244;DHT22;10780;50.942;4.028;2023-07-22T11:12:27;24.60;99.90
21244;DHT22;10780;50.942;4.028;2023-07-22T11:15:02;24.80;99.90
21244;DHT22;10780;50.942;4.028;2023-07-22T11:17:30;24.40;99.90
21244;DHT22;10780;50.942;4.028;2023-07-22T11:19:58;24.60;99.90
21244;DHT22;10780;50.942;4.028;2023-07-22T11:22:24;24.70;99.90
21244;DHT22;10780;50.942;4.028;2023-07-22T11:24:49;24.70;99.90
21244;DHT22;10780;50.942;4.028;2023-07-22T11:27:15;24.70;99.90
21244;DHT22;10780;50.942;4.028;2023-07-22T11:29:41;24.50;99.90
21244;DHT22;10780;50.942;4.028;2023-07-22T11:32:14;24.10;99.90
21244;DHT22;10780;50.942;4.028;2023-07-22T11:34:41;24.00;99.90
21244;DHT22;10780;50.942;4.028;2023-07-22T11:37:06;24.10;99.90
21244;DHT22;10780;50.942;4.028;2023-07-22T11:39:32;24.40;99.90
21244;DHT22;10780;50.942;4.028;2023-07-22T11:42:00;24.90;99.90
21244;DHT22;10780;50.942;4.028;2023-07-22T11:44:28;24.70;99.90
21244;DHT22;10780;50.942;4.028;2023-07-22T11:46:59;24.80;99.90
21244;DHT22;10780;50.942;4.028;2023-07-22T11:52:01;24.40;99.90
21244;DHT22;10780;50.942;4.028;2023-07-22T11:54:27;24.30;99.90
21244;DHT22;10780;50.942;4.028;2023-07-22T11:56:57;24.10;99.90
21244;DHT22;10780;50.942;4.028;2023-07-22T11:59:33;24.30;99.90
21244;DHT22;10780;50.942;4.028;2023-07-22T12:02:00;24.10;99.90
21244;DHT22;10780;50.942;4.028;2023-07-22T12:04:28;23.80;99.90
21244;DHT22;10780;50.942;4.028;2023-07-22T12:06:53;23.80;99.90
21244;DHT22;10780;50.942;4.028;2023-07-22T12:09:19;24.10;99.90
21244;DHT22;10780;50.942;4.028;2023-07-22T12:11:45;24.40;99.90
21244;DHT22;10780;50.942;4.028;2023-07-22T12:14:14;24.40;99.90
21244;DHT22;10780;50.942;4.028;2023-07-22T12:16:41;24.90;99.90
21244;DHT22;10780;50.942;4.028;2023-07-22T12:19:08;25.10;99.90
21244;DHT22;10780;50.942;4.028;2023-07-22T12:21:35;25.20;99.90
21244;DHT22;10780;50.942;4.028;2023-07-22T12:24:01;24.50;99.90
21244;DHT22;10780;50.942;4.028;2023-07-22T12:26:27;23.80;99.90
21244;DHT22;10780;50.942;4.028;2023-07-22T12:28:53;23.80;99.90
21244;DHT22;10780;50.942;4.028;2023-07-22T12:31:19;23.70;99.90
21244;DHT22;10780;50.942;4.028;2023-07-22T12:33:45;23.80;99.90
21244;DHT22;10780;50.942;4.028;2023-07-22T12:36:11;23.60;99.90
21244;DHT22;10780;50.942;4.028;2023-07-22T12:38:36;23.10;99.90
21244;DHT22;10780;50.942;4.028;2023-07-22T12:41:02;22.90;99.90
21244;DHT22;10780;50.942;4.028;2023-07-22T12:43:28;23.00;99.90
21244;DHT22;10780;50.942;4.028;2023-07-22T12:45:54;23.20;99.90
21244;DHT22;10780;50.942;4.028;2023-07-22T12:48:20;23.40;99.90
21244;DHT22;10780;50.942;4.028;2023-07-22T12:50:45;23.30;99.90
21244;DHT22;10780;50.942;4.028;2023-07-22T12:53:14;23.30;99.90
21244;DHT22;10780;50.942;4.028;2023-07-22T12:55:39;23.40;99.90
21244;DHT22;10780;50.942;4.028;2023-07-22T12:58:05;23.30;99.90
21244;DHT22;10780;50.942;4.028;2023-07-22T13:00:31;23.50;99.90
21244;DHT22;10780;50.942;4.028;2023-07-22T13:02:57;23.70;99.90
21244;DHT22;10780;50.942;4.028;2023-07-22T13:05:23;23.70;99.90
21244;DHT22;10780;50.942;4.028;2023-07-22T13:07:49;23.70;99.90
21244;DHT22;10780;50.942;4.028;2023-07-22T13:10:15;23.60;99.90
21244;DHT22;10780;50.942;4.028;2023-07-22T13:12:45;23.80;99.90
21244;DHT22;10780;50.942;4.028;2023-07-22T13:15:11;24.30;99.90
21244;DHT22;10780;50.942;4.028;2023-07-22T13:17:37;24.40;99.90
21244;DHT22;10780;50.942;4.028;2023-07-22T13:20:04;24.20;99.90
21244;DHT22;10780;50.942;4.028;2023-07-22T13:22:35;24.10;99.90
21244;DHT22;10780;50.942;4.028;2023-07-22T13:25:01;24.10;99.90
21244;DHT22;10780;50.942;4.028;2023-07-22T13:27:26;23.60;99.90
21244;DHT22;10780;50.942;4.028;2023-07-22T13:29:52;23.50;99.90
21244;DHT22;10780;50.942;4.028;2023-07-22T13:32:18;23.30;99.90
21244;DHT22;10780;50.942;4.028;2023-07-22T13:34:43;23.00;99.90
21244;DHT22;10780;50.942;4.028;2023-07-22T13:37:09;22.60;99.90
21244;DHT22;10780;50.942;4.028;2023-07-22T13:39:34;22.50;99.90
21244;DHT22;10780;50.942;4.028;2023-07-22T13:42:00;22.20;99.90
21244;DHT22;10780;50.942;4.028;2023-07-22T13:44:26;22.10;99.90
21244;DHT22;10780;50.942;4.028;2023-07-22T13:46:51;22.00;99.90
21244;DHT22;10780;50.942;4.028;2023-07-22T13:49:17;21.70;99.90
21244;DHT22;10780;50.942;4.028;2023-07-22T13:51:43;21.60;99.90
21244;DHT22;10780;50.942;4.028;2023-07-22T13:54:08;21.40;99.90
21244;DHT22;10780;50.942;4.028;2023-07-22T13:56:34;21.20;99.90
21244;DHT22;10780;50.942;4.028;2023-07-22T13:59:00;21.00;99.90
21244;DHT22;10780;50.942;4.028;2023-07-22T14:01:26;21.10;99.90
21244;DHT22;10780;50.942;4.028;2023-07-22T14:03:53;21.20;99.90
21244;DHT22;10780;50.942;4.028;2023-07-22T14:06:19;21.30;99.90
21244;DHT22;10780;50.942;4.028;2023-07-22T14:08:44;21.40;99.90
21244;DHT22;10780;50.942;4.028;2023-07-22T14:11:10;21.40;99.90
21244;DHT22;10780;50.942;4.028;2023-07-22T14:13:35;21.40;99.90
21244;DHT22;10780;50.942;4.028;2023-07-22T14:16:02;21.60;99.90
21244;DHT22;10780;50.942;4.028;2023-07-22T14:18:28;22.10;99.90
21244;DHT22;10780;50.942;4.028;2023-07-22T14:20:54;22.50;99.90
21244;DHT22;10780;50.942;4.028;2023-07-22T14:23:20;22.30;99.90
21244;DHT22;10780;50.942;4.028;2023-07-22T14:25:45;22.40;99.90
21244;DHT22;10780;50.942;4.028;2023-07-22T14:28:11;22.30;99.90
21244;DHT22;10780;50.942;4.028;2023-07-22T14:30:37;22.20;99.90
21244;DHT22;10780;50.942;4.028;2023-07-22T14:33:02;22.40;99.90
21244;DHT22;10780;50.942;4.028;2023-07-22T14:35:28;22.50;99.90
21244;DHT22;10780;50.942;4.028;2023-07-22T14:37:54;22.90;99.90
21244;DHT22;10780;50.942;4.028;2023-07-22T14:40:19;23.50;99.90
21244;DHT22;10780;50.942;4.028;2023-07-22T14:42:45;24.00;99.90
21244;DHT22;10780;50.942;4.028;2023-07-22T14:45:10;24.40;99.90
21244;DHT22;10780;50.942;4.028;2023-07-22T14:47:36;24.50;99.90
21244;DHT22;10780;50.942;4.028;2023-07-22T14:50:02;24.70;99.90
21244;DHT22;10780;50.942;4.028;2023-07-22T14:52:28;25.00;99.90
21244;DHT22;10780;50.942;4.028;2023-07-22T14:54:53;25.10;99.90
21244;DHT22;10780;50.942;4.028;2023-07-22T14:57:19;25.60;99.90
21244;DHT22;10780;50.942;4.028;2023-07-22T14:59:44;25.40;99.90
21244;DHT22;10780;50.942;4.028;2023-07-22T15:02:12;25.40;99.90
21244;DHT22;10780;50.942;4.028;2023-07-22T15:04:37;25.10;99.90
21244;DHT22;10780;50.942;4.028;2023-07-22T15:07:03;24.60;99.90
21244;DHT22;10780;50.942;4.028;2023-07-22T15:09:29;24.50;99.90
21244;DHT22;10780;50.942;4.028;2023-07-22T15:11:54;24.30;99.90
21244;DHT22;10780;50.942;4.028;2023-07-22T15:14:20;24.20;99.90
21244;DHT22;10780;50.942;4.028;2023-07-22T15:16:45;24.00;99.90
21244;DHT22;10780;50.942;4.028;2023-07-22T15:19:11;23.80;99.90
21244;DHT22;10780;50.942;4.028;2023-07-22T15:21:37;23.70;99.90
21244;DHT22;10780;50.942;4.028;2023-07-22T15:24:04;23.50;99.90
21244;DHT22;10780;50.942;4.028;2023-07-22T15:26:30;23.00;99.90
21244;DHT22;10780;50.942;4.028;2023-07-22T15:28:55;23.00;99.90
21244;DHT22;10780;50.942;4.028;2023-07-22T15:31:21;22.80;99.90
21244;DHT22;10780;50.942;4.028;2023-07-22T15:33:47;22.90;99.90
21244;DHT22;10780;50.942;4.028;2023-07-22T15:36:13;22.70;99.90
21244;DHT22;10780;50.942;4.028;2023-07-22T15:38:40;22.70;99.90
21244;DHT22;10780;50.942;4.028;2023-07-22T15:41:06;22.60;99.90
21244;DHT22;10780;50.942;4.028;2023-07-22T15:43:32;22.40;99.90
21244;DHT22;10780;50.942;4.028;2023-07-22T15:45:58;22.40;99.90